Time;durP1;ratioP1;P1;durP2;ratioP2;P2;SDS_P1;SDS_P2;PMS_P1;PMS_P2;Temp;Humidity;BMP_temperature;BMP_pressure;BME280_temperature;BME280_humidity;BME280_pressure;Samples;Min_cycle;Max_cycle;Signal;HPM_P1;HPM_P2
2021/08/15 00:00:07;;;;;;;20.92;5.43;;;;;;;;;;5097740;28;20218;-65
2021/08/15 00:02:35;;;;;;;15.15;5.30;;;;;;;;;;5097725;28;20659;-65
2021/08/15 00:05:04;;;;;;;18.55;5.50;;;;;;;;;;5097644;28;20213;-65
2021/08/15 00:07:33;;;;;;;20.90;5.88;;;;;;;;;;5097169;28;20216;-65
2021/08/15 00:10:01;;;;;;;19.15;4.90;;;;;;;;;;5097474;28;20212;-65
2021/08/15 00:12:29;;;;;;;19.95;6.20;;;;;;;;;;5104011;28;20588;-64
2021/08/15 00:14:57;;;;;;;20.38;6.03;;;;;;;;;;5117888;28;20208;-65
2021/08/15 00:17:25;;;;;;;19.35;6.00;;;;;;;;;;5117636;28;20201;-64
2021/08/15 00:19:53;;;;;;;17.15;5.18;;;;;;;;;;5096087;28;20242;-65
2021/08/15 00:22:21;;;;;;;18.63;5.15;;;;;;;;;;5097336;28;20235;-65
2021/08/15 00:24:50;;;;;;;15.95;5.95;;;;;;;;;;5097467;28;20211;-65
2021/08/15 00:27:18;;;;;;;14.45;5.68;;;;;;;;;;5097304;28;20217;-65
2021/08/15 00:29:46;;;;;;;17.92;5.68;;;;;;;;;;5097532;28;20350;-65
2021/08/15 00:32:14;;;;;;;14.95;5.68;;;;;;;;;;5097530;28;20231;-64
2021/08/15 00:34:42;;;;;;;11.90;5.28;;;;;;;;;;5097515;28;20229;-64
2021/08/15 00:37:10;;;;;;;18.08;5.40;;;;;;;;;;5097086;28;20205;-65
2021/08/15 00:39:38;;;;;;;16.95;5.38;;;;;;;;;;5096967;28;20243;-64
2021/08/15 00:42:08;;;;;;;17.55;4.78;;;;;;;;;;5097267;28;20225;-64
2021/08/15 00:44:36;;;;;;;18.25;5.20;;;;;;;;;;5097405;28;20201;-65
2021/08/15 00:47:06;;;;;;;17.65;4.95;;;;;;;;;;5097108;28;20223;-65
2021/08/15 00:49:34;;;;;;;18.95;6.05;;;;;;;;;;5097098;28;20297;-65
2021/08/15 00:52:03;;;;;;;30.58;9.25;;;;;;;;;;5096947;28;20226;-64
2021/08/15 00:54:30;;;;;;;24.42;8.88;;;;;;;;;;5097057;28;20224;-65
2021/08/15 00:56:59;;;;;;;19.38;7.90;;;;;;;;;;5096994;28;20203;-64
2021/08/15 00:59:29;;;;;;;19.17;6.87;;;;;;;;;;5097213;28;20205;-64
2021/08/15 01:01:57;;;;;;;16.90;6.23;;;;;;;;;;5097081;28;20225;-64
2021/08/15 01:04:26;;;;;;;13.10;5.37;;;;;;;;;;5099454;28;20572;-64
2021/08/15 01:06:55;;;;;;;17.53;6.40;;;;;;;;;;5100607;28;20252;-64
2021/08/15 01:09:23;;;;;;;15.80;6.17;;;;;;;;;;5100699;28;20233;-64
2021/08/15 01:11:51;;;;;;;20.17;5.83;;;;;;;;;;5101765;28;20646;-65
2021/08/15 01:14:19;;;;;;;20.43;5.77;;;;;;;;;;5121406;28;20222;-64
2021/08/15 01:16:48;;;;;;;19.43;6.13;;;;;;;;;;5121118;28;20204;-64
2021/08/15 01:19:16;;;;;;;22.43;5.07;;;;;;;;;;5104499;28;20195;-64
2021/08/15 01:21:44;;;;;;;17.37;5.47;;;;;;;;;;5100459;28;20301;-64
2021/08/15 01:24:12;;;;;;;20.33;4.87;;;;;;;;;;5100661;28;20200;-64
2021/08/15 01:26:41;;;;;;;23.10;5.57;;;;;;;;;;5100625;28;20222;-65
2021/08/15 01:29:11;;;;;;;22.77;6.27;;;;;;;;;;5100617;28;20212;-64
2021/08/15 01:31:39;;;;;;;13.80;5.87;;;;;;;;;;5100174;28;20222;-64
2021/08/15 01:34:07;;;;;;;17.07;4.37;;;;;;;;;;5100314;28;20231;-64
2021/08/15 01:36:35;;;;;;;17.57;5.13;;;;;;;;;;5100352;28;20207;-65
2021/08/15 01:39:03;;;;;;;21.53;5.80;;;;;;;;;;5100201;28;20236;-64
2021/08/15 01:41:30;;;;;;;24.17;5.77;;;;;;;;;;5100245;28;20226;-64
2021/08/15 01:43:59;;;;;;;22.03;5.97;;;;;;;;;;5100344;28;20238;-64
2021/08/15 01:46:30;;;;;;;17.37;5.30;;;;;;;;;;5100029;28;20663;-65
2021/08/15 01:48:58;;;;;;;19.40;5.77;;;;;;;;;;5100246;28;20211;-64
2021/08/15 01:51:26;;;;;;;15.93;6.00;;;;;;;;;;5099724;28;20661;-64
2021/08/15 01:53:56;;;;;;;23.60;5.70;;;;;;;;;;5099975;28;20236;-64
2021/08/15 01:56:25;;;;;;;17.97;5.50;;;;;;;;;;5100093;28;20206;-64
2021/08/15 01:58:53;;;;;;;15.90;4.93;;;;;;;;;;5100014;28;20740;-64
2021/08/15 02:01:22;;;;;;;15.67;5.83;;;;;;;;;;5099866;28;20268;-64
2021/08/15 02:03:51;;;;;;;16.60;5.32;;;;;;;;;;5100122;28;20215;-64
2021/08/15 02:06:19;;;;;;;19.53;5.03;;;;;;;;;;5099910;28;20293;-65
2021/08/15 02:08:48;;;;;;;16.70;5.40;;;;;;;;;;5099710;28;20209;-64
2021/08/15 02:11:16;;;;;;;12.98;4.88;;;;;;;;;;5099566;28;20294;-65
2021/08/15 02:13:44;;;;;;;18.05;4.93;;;;;;;;;;5117129;28;20213;-64
2021/08/15 02:16:12;;;;;;;16.20;5.05;;;;;;;;;;5118883;28;20245;-64
2021/08/15 02:18:40;;;;;;;17.75;5.30;;;;;;;;;;5108339;28;20655;-64
2021/08/15 02:21:10;;;;;;;13.43;4.85;;;;;;;;;;5098962;28;20215;-64
2021/08/15 02:23:37;;;;;;;20.50;5.97;;;;;;;;;;5099808;28;20206;-65
2021/08/15 02:26:05;;;;;;;18.02;4.20;;;;;;;;;;5099547;28;20215;-65
2021/08/15 02:28:33;;;;;;;16.50;5.05;;;;;;;;;;5099668;28;20217;-64
2021/08/15 02:31:01;;;;;;;18.35;4.90;;;;;;;;;;5099263;28;20211;-64
2021/08/15 02:33:29;;;;;;;21.58;5.88;;;;;;;;;;5099505;28;20229;-64
2021/08/15 02:35:57;;;;;;;18.98;4.78;;;;;;;;;;5098705;28;20221;-64
2021/08/15 02:38:27;;;;;;;17.77;4.20;;;;;;;;;;5099336;28;20207;-65
2021/08/15 02:40:55;;;;;;;27.05;4.97;;;;;;;;;;5099333;28;20210;-65
2021/08/15 02:43:23;;;;;;;19.15;4.82;;;;;;;;;;5098874;28;20231;-64
2021/08/15 02:45:51;;;;;;;17.52;4.50;;;;;;;;;;5098930;28;20199;-64
2021/08/15 02:48:19;;;;;;;23.13;4.93;;;;;;;;;;5099030;28;20745;-65
2021/08/15 02:50:46;;;;;;;20.07;5.03;;;;;;;;;;5098819;28;20223;-64
2021/08/15 02:53:14;;;;;;;17.33;5.32;;;;;;;;;;5098975;28;20241;-64
2021/08/15 02:55:44;;;;;;;19.27;5.35;;;;;;;;;;5098616;28;20234;-64
2021/08/15 02:58:12;;;;;;;19.40;5.75;;;;;;;;;;5098968;28;20219;-65
2021/08/15 03:00:40;;;;;;;16.30;4.70;;;;;;;;;;5099206;28;20219;-65
2021/08/15 03:03:08;;;;;;;17.93;6.17;;;;;;;;;;5098528;28;20251;-63
2021/08/15 03:05:36;;;;;;;15.13;5.40;;;;;;;;;;5098442;28;20228;-63
2021/08/15 03:08:04;;;;;;;17.33;6.43;;;;;;;;;;5098837;28;20281;-63
2021/08/15 03:10:32;;;;;;;18.10;4.40;;;;;;;;;;5098561;28;20668;-63
2021/08/15 03:13:05;;;;;;;13.47;4.23;;;;;;;;;;5109934;28;20235;-63
2021/08/15 03:15:33;;;;;;;18.00;5.05;;;;;;;;;;5118905;28;20231;-63
2021/08/15 03:18:01;;;;;;;16.90;5.37;;;;;;;;;;5113846;28;20220;-63
2021/08/15 03:20:29;;;;;;;19.37;6.13;;;;;;;;;;5097619;28;20284;-63
2021/08/15 03:22:57;;;;;;;21.67;5.43;;;;;;;;;;5098480;28;20221;-63
2021/08/15 03:25:25;;;;;;;18.37;4.47;;;;;;;;;;5098246;28;20206;-63
2021/08/15 03:27:53;;;;;;;19.50;4.93;;;;;;;;;;5097952;28;20208;-63
2021/08/15 03:30:23;;;;;;;13.60;4.53;;;;;;;;;;5085276;28;20549;-63
2021/08/15 03:32:51;;;;;;;11.53;4.40;;;;;;;;;;5098248;28;20225;-63
2021/08/15 03:35:19;;;;;;;17.27;6.33;;;;;;;;;;5097932;28;20225;-63
2021/08/15 03:37:47;;;;;;;18.83;5.28;;;;;;;;;;5097923;28;20866;-63
2021/08/15 03:40:15;;;;;;;14.57;5.17;;;;;;;;;;5098010;28;20232;-63
2021/08/15 03:42:43;;;;;;;21.07;5.20;;;;;;;;;;5098027;28;20229;-65
2021/08/15 03:45:11;;;;;;;20.48;5.93;;;;;;;;;;5098231;28;20208;-63
2021/08/15 03:47:40;;;;;;;17.95;5.88;;;;;;;;;;5097986;28;20765;-63
2021/08/15 03:50:09;;;;;;;22.53;5.27;;;;;;;;;;5097775;28;20213;-63
2021/08/15 03:52:40;;;;;;;22.13;4.47;;;;;;;;;;5097967;28;20237;-63
2021/08/15 03:55:11;;;;;;;17.50;4.50;;;;;;;;;;5098143;28;20241;-63
2021/08/15 03:57:39;;;;;;;13.17;5.00;;;;;;;;;;5097741;28;20291;-63
2021/08/15 04:00:07;;;;;;;23.37;4.90;;;;;;;;;;5098072;28;20209;-63
2021/08/15 04:02:36;;;;;;;11.23;4.33;;;;;;;;;;5097600;28;20228;-63
2021/08/15 04:05:06;;;;;;;24.73;5.60;;;;;;;;;;5097355;28;20567;-63
2021/08/15 04:07:34;;;;;;;18.60;4.37;;;;;;;;;;5097626;28;20241;-64
2021/08/15 04:10:03;;;;;;;23.20;5.10;;;;;;;;;;5097830;28;20219;-64
2021/08/15 04:12:31;;;;;;;19.97;5.23;;;;;;;;;;5104610;28;20319;-64
2021/08/15 04:14:59;;;;;;;17.57;4.33;;;;;;;;;;5117776;28;20220;-65
2021/08/15 04:17:27;;;;;;;15.70;4.33;;;;;;;;;;5118049;28;20636;-66
2021/08/15 04:19:55;;;;;;;18.40;4.27;;;;;;;;;;5095947;28;20200;-64
2021/08/15 04:22:24;;;;;;;23.73;4.43;;;;;;;;;;5097252;28;20229;-64
2021/08/15 04:24:52;;;;;;;20.13;4.03;;;;;;;;;;5097635;28;20234;-65
2021/08/15 04:27:20;;;;;;;18.03;4.47;;;;;;;;;;5097439;28;20672;-64
2021/08/15 04:29:48;;;;;;;16.83;3.83;;;;;;;;;;5097652;28;20201;-65
2021/08/15 04:32:16;;;;;;;16.87;4.63;;;;;;;;;;5097196;28;20599;-64
2021/08/15 04:34:44;;;;;;;13.93;4.10;;;;;;;;;;5097401;28;20207;-62
2021/08/15 04:37:12;;;;;;;18.30;5.20;;;;;;;;;;5097101;28;20212;-63
2021/08/15 04:39:41;;;;;;;15.37;5.80;;;;;;;;;;5099700;28;20233;-63
2021/08/15 04:42:09;;;;;;;23.73;5.87;;;;;;;;;;5101645;28;20232;-65
2021/08/15 04:44:37;;;;;;;16.17;5.47;;;;;;;;;;5101853;28;20202;-63
2021/08/15 04:47:05;;;;;;;19.43;5.27;;;;;;;;;;5101500;28;20204;-63
2021/08/15 04:49:33;;;;;;;21.60;5.57;;;;;;;;;;5097805;28;20222;-64
2021/08/15 04:52:01;;;;;;;13.87;4.43;;;;;;;;;;5100563;28;20219;-65
2021/08/15 04:54:29;;;;;;;18.57;4.47;;;;;;;;;;5101240;28;20211;-65
2021/08/15 04:56:59;;;;;;;15.67;4.80;;;;;;;;;;5100913;28;20220;-63
2021/08/15 04:59:27;;;;;;;15.50;5.97;;;;;;;;;;5101030;28;20198;-65
2021/08/15 05:01:56;;;;;;;16.63;4.97;;;;;;;;;;5101057;28;20223;-63
2021/08/15 05:04:24;;;;;;;22.63;5.57;;;;;;;;;;5101311;28;20285;-64
2021/08/15 05:06:52;;;;;;;16.87;4.90;;;;;;;;;;5100581;28;20664;-64
2021/08/15 05:09:20;;;;;;;14.47;4.80;;;;;;;;;;5100958;28;20197;-65
2021/08/15 05:11:48;;;;;;;18.20;5.10;;;;;;;;;;5100803;28;20230;-65
2021/08/15 05:14:17;;;;;;;22.53;5.43;;;;;;;;;;5100747;28;20665;-65
2021/08/15 05:16:45;;;;;;;20.70;5.03;;;;;;;;;;5100693;28;20224;-65
2021/08/15 05:19:13;;;;;;;13.83;5.30;;;;;;;;;;5100526;28;20560;-63
2021/08/15 05:21:41;;;;;;;15.90;4.07;;;;;;;;;;5100078;28;20588;-63
2021/08/15 05:24:09;;;;;;;18.20;4.77;;;;;;;;;;5100918;28;20209;-63
2021/08/15 05:26:37;;;;;;;17.00;4.67;;;;;;;;;;5100510;28;20539;-62
2021/08/15 05:29:05;;;;;;;17.20;4.73;;;;;;;;;;5100907;28;20208;-63
2021/08/15 05:31:34;;;;;;;16.40;4.17;;;;;;;;;;5100082;28;20247;-65
2021/08/15 05:34:02;;;;;;;18.43;5.23;;;;;;;;;;5100682;28;20363;-65
2021/08/15 05:36:30;;;;;;;17.57;3.90;;;;;;;;;;5100244;28;20237;-65
2021/08/15 05:38:58;;;;;;;11.57;4.33;;;;;;;;;;5100645;28;20244;-64
2021/08/15 05:41:26;;;;;;;16.43;4.77;;;;;;;;;;5100287;28;20224;-65
2021/08/15 05:43:54;;;;;;;15.10;4.33;;;;;;;;;;5100277;28;20212;-63
2021/08/15 05:46:22;;;;;;;17.43;4.93;;;;;;;;;;5100351;28;20204;-64
2021/08/15 05:48:51;;;;;;;24.20;5.17;;;;;;;;;;5100289;28;20387;-65
2021/08/15 05:51:19;;;;;;;20.90;5.77;;;;;;;;;;5099649;28;20234;-63
2021/08/15 05:53:47;;;;;;;16.00;5.13;;;;;;;;;;5100406;28;20220;-65
2021/08/15 05:56:15;;;;;;;16.53;4.90;;;;;;;;;;5099947;28;20229;-65
2021/08/15 05:58:43;;;;;;;19.67;5.27;;;;;;;;;;5100103;28;20571;-64
2021/08/15 06:01:11;;;;;;;17.63;5.83;;;;;;;;;;5099961;28;20219;-65
2021/08/15 06:03:39;;;;;;;15.67;5.27;;;;;;;;;;5099879;28;20206;-65
2021/08/15 06:06:09;;;;;;;18.57;5.63;;;;;;;;;;5099557;28;20545;-63
2021/08/15 06:08:37;;;;;;;22.80;5.07;;;;;;;;;;5099934;28;20293;-64
2021/08/15 06:11:05;;;;;;;15.03;6.23;;;;;;;;;;5099882;28;20207;-65
2021/08/15 06:13:32;;;;;;;20.10;6.10;;;;;;;;;;5115250;28;20213;-64
2021/08/15 06:16:00;;;;;;;15.77;5.87;;;;;;;;;;5120194;28;20235;-65
2021/08/15 06:18:28;;;;;;;20.60;6.47;;;;;;;;;;5109865;28;20212;-64
2021/08/15 06:20:56;;;;;;;16.45;5.97;;;;;;;;;;5099492;28;20210;-65
2021/08/15 06:23:26;;;;;;;14.82;5.85;;;;;;;;;;5099617;28;20211;-64
2021/08/15 06:25:54;;;;;;;27.43;7.33;;;;;;;;;;5099776;28;20198;-63
2021/08/15 06:28:22;;;;;;;18.17;6.50;;;;;;;;;;5099728;28;20211;-64
2021/08/15 06:30:49;;;;;;;20.33;7.47;;;;;;;;;;5099504;28;20290;-64
2021/08/15 06:33:18;;;;;;;17.55;5.82;;;;;;;;;;5099372;28;20224;-64
2021/08/15 06:35:46;;;;;;;18.55;6.72;;;;;;;;;;5099167;28;20212;-64
2021/08/15 06:38:13;;;;;;;20.35;6.13;;;;;;;;;;5099443;28;20211;-64
2021/08/15 06:40:43;;;;;;;19.90;6.80;;;;;;;;;;5099130;28;20714;-63
2021/08/15 06:43:12;;;;;;;26.48;8.13;;;;;;;;;;5098810;28;20641;-64
2021/08/15 06:45:40;;;;;;;21.80;6.75;;;;;;;;;;5099160;28;20641;-65
2021/08/15 06:48:08;;;;;;;20.60;5.68;;;;;;;;;;5099062;28;20292;-64
2021/08/15 06:50:36;;;;;;;15.63;6.38;;;;;;;;;;5098599;28;20209;-64
2021/08/15 06:53:04;;;;;;;18.15;6.80;;;;;;;;;;5099161;28;20228;-64
2021/08/15 06:55:32;;;;;;;19.58;6.18;;;;;;;;;;5098929;28;20211;-64
2021/08/15 06:58:02;;;;;;;23.35;5.85;;;;;;;;;;5098935;28;20235;-64
2021/08/15 07:00:29;;;;;;;17.73;7.30;;;;;;;;;;5098683;28;20260;-65
2021/08/15 07:02:57;;;;;;;16.25;7.53;;;;;;;;;;5098188;28;20225;-64
2021/08/15 07:05:27;;;;;;;21.58;6.63;;;;;;;;;;5098234;28;20548;-64
2021/08/15 07:07:55;;;;;;;17.48;6.40;;;;;;;;;;5098815;28;20242;-65
2021/08/15 07:10:23;;;;;;;18.80;5.95;;;;;;;;;;5098442;28;20698;-64
2021/08/15 07:12:55;;;;;;;16.65;6.15;;;;;;;;;;5108796;28;20235;-64
2021/08/15 07:15:28;;;;;;;14.52;6.60;;;;;;;;;;5118653;28;20647;-64
2021/08/15 07:17:57;;;;;;;17.98;6.78;;;;;;;;;;5114553;28;20246;-64
2021/08/15 07:20:25;;;;;;;18.77;6.15;;;;;;;;;;5097128;28;20205;-64
2021/08/15 07:22:53;;;;;;;18.02;5.30;;;;;;;;;;5098374;28;20232;-65
2021/08/15 07:25:24;;;;;;;17.60;6.30;;;;;;;;;;5098385;28;20236;-63
2021/08/15 07:27:52;;;;;;;20.95;6.85;;;;;;;;;;5098224;28;20231;-63
2021/08/15 07:30:20;;;;;;;15.57;5.63;;;;;;;;;;5098234;28;20219;-64
2021/08/15 07:32:50;;;;;;;19.35;5.80;;;;;;;;;;5098166;28;20229;-65
2021/08/15 07:35:19;;;;;;;12.98;6.03;;;;;;;;;;5097857;28;20250;-64
2021/08/15 07:37:47;;;;;;;15.43;5.05;;;;;;;;;;5098111;28;20231;-63
2021/08/15 07:40:16;;;;;;;15.13;6.03;;;;;;;;;;5098045;28;20266;-63
2021/08/15 07:42:44;;;;;;;21.00;6.05;;;;;;;;;;5097733;28;20229;-63
2021/08/15 07:45:12;;;;;;;21.27;6.03;;;;;;;;;;5097781;28;20263;-64
2021/08/15 07:47:40;;;;;;;13.38;6.40;;;;;;;;;;5097840;28;20204;-63
2021/08/15 07:50:10;;;;;;;13.68;5.82;;;;;;;;;;5097933;28;20215;-64
2021/08/15 07:52:38;;;;;;;18.08;5.25;;;;;;;;;;5097890;28;20239;-64
2021/08/15 07:55:07;;;;;;;16.38;5.60;;;;;;;;;;5098094;28;20215;-66
2021/08/15 07:57:34;;;;;;;13.77;5.70;;;;;;;;;;5097902;28;20229;-66
2021/08/15 08:00:03;;;;;;;16.08;6.13;;;;;;;;;;5097979;28;20236;-66
2021/08/15 08:02:31;;;;;;;16.17;5.13;;;;;;;;;;5097457;28;20565;-66
2021/08/15 08:04:59;;;;;;;18.73;5.95;;;;;;;;;;5097719;28;20230;-66
2021/08/15 08:07:29;;;;;;;17.30;5.32;;;;;;;;;;5097498;28;20258;-66
2021/08/15 08:09:57;;;;;;;15.70;5.85;;;;;;;;;;5097650;28;20209;-66
2021/08/15 08:12:25;;;;;;;20.33;5.50;;;;;;;;;;5104188;28;20625;-66
2021/08/15 08:14:53;;;;;;;22.98;6.03;;;;;;;;;;5117642;28;20201;-66
2021/08/15 08:17:21;;;;;;;19.95;5.63;;;;;;;;;;5117748;28;20224;-66
2021/08/15 08:19:49;;;;;;;14.73;6.05;;;;;;;;;;5097018;28;20197;-66
2021/08/15 08:22:17;;;;;;;15.27;5.85;;;;;;;;;;5097728;28;20225;-66
2021/08/15 08:24:46;;;;;;;15.88;6.28;;;;;;;;;;5097616;28;20211;-63
2021/08/15 08:27:14;;;;;;;16.95;5.53;;;;;;;;;;5097513;28;20201;-63
2021/08/15 08:29:42;;;;;;;16.17;5.35;;;;;;;;;;5097324;28;20292;-63
2021/08/15 08:32:10;;;;;;;19.98;6.40;;;;;;;;;;5097442;28;20284;-66
2021/08/15 08:34:38;;;;;;;19.10;6.72;;;;;;;;;;5097521;28;20205;-66
2021/08/15 08:37:06;;;;;;;13.43;5.53;;;;;;;;;;5097154;28;20217;-66
2021/08/15 08:39:34;;;;;;;16.08;5.85;;;;;;;;;;5097218;28;20241;-66
2021/08/15 08:42:05;;;;;;;15.43;5.75;;;;;;;;;;5097381;28;20799;-66
2021/08/15 08:44:34;;;;;;;16.70;6.78;;;;;;;;;;5097199;28;20211;-66
2021/08/15 08:47:03;;;;;;;17.15;5.13;;;;;;;;;;5097345;28;20241;-66
2021/08/15 08:49:31;;;;;;;17.65;5.88;;;;;;;;;;5097381;28;20280;-66
2021/08/15 08:51:59;;;;;;;18.02;6.57;;;;;;;;;;5097028;28;20225;-66
2021/08/15 08:54:28;;;;;;;19.42;7.25;;;;;;;;;;5096945;28;20209;-66
2021/08/15 08:56:56;;;;;;;21.88;7.20;;;;;;;;;;5097285;28;20565;-66
2021/08/15 08:59:25;;;;;;;20.30;6.25;;;;;;;;;;5096949;28;20665;-66
2021/08/15 09:01:54;;;;;;;20.88;6.80;;;;;;;;;;5096966;28;20599;-66
2021/08/15 09:04:22;;;;;;;19.55;6.78;;;;;;;;;;5096969;28;20217;-66
2021/08/15 09:06:50;;;;;;;15.18;6.22;;;;;;;;;;5097167;28;20205;-66
2021/08/15 09:09:18;;;;;;;18.70;5.85;;;;;;;;;;5096856;28;20238;-66
2021/08/15 09:11:47;;;;;;;15.68;6.45;;;;;;;;;;5097025;28;20240;-66
2021/08/15 09:14:17;;;;;;;15.73;5.97;;;;;;;;;;5117556;28;20209;-66
2021/08/15 09:16:59;;;;;;;21.42;6.70;;;;;;;;;;5117457;28;20200;-66
2021/08/15 09:19:28;;;;;;;21.63;6.80;;;;;;;;;;5099043;28;20219;-66
2021/08/15 09:21:57;;;;;;;19.63;6.40;;;;;;;;;;5096518;28;20661;-66
2021/08/15 09:24:25;;;;;;;16.13;7.20;;;;;;;;;;5097143;28;20209;-64
2021/08/15 09:27:09;;;;;;;14.00;6.70;;;;;;;;;;5100811;28;20298;-64
2021/08/15 09:29:37;;;;;;;24.90;7.57;;;;;;;;;;5100495;28;20211;-66
2021/08/15 09:32:07;;;;;;;10.35;6.10;;;;;;;;;;5100217;28;20233;-64
2021/08/15 09:34:34;;;;;;;16.15;6.07;;;;;;;;;;5100429;28;20575;-65
2021/08/15 09:37:02;;;;;;;14.77;6.90;;;;;;;;;;5100473;28;20216;-64
2021/08/15 09:39:31;;;;;;;13.65;6.72;;;;;;;;;;5099874;28;20255;-64
2021/08/15 09:41:59;;;;;;;12.93;6.47;;;;;;;;;;5100547;28;20229;-65
2021/08/15 09:44:28;;;;;;;19.70;7.25;;;;;;;;;;5100339;28;20204;-64
2021/08/15 09:47:05;;;;;;;15.27;6.45;;;;;;;;;;5100351;28;20209;-64
2021/08/15 09:49:35;;;;;;;18.25;7.70;;;;;;;;;;5099994;28;20233;-64
2021/08/15 09:52:03;;;;;;;10.82;6.43;;;;;;;;;;5100192;28;20229;-64
2021/08/15 09:54:32;;;;;;;13.00;6.50;;;;;;;;;;5100305;28;20201;-64
2021/08/15 09:57:04;;;;;;;11.52;7.07;;;;;;;;;;5100054;28;20579;-63
2021/08/15 09:59:35;;;;;;;14.20;7.40;;;;;;;;;;5099756;28;20231;-64
2021/08/15 10:02:05;;;;;;;12.40;6.57;;;;;;;;;;5099916;28;20306;-64
2021/08/15 10:04:34;;;;;;;13.60;6.78;;;;;;;;;;5100321;28;20232;-64
2021/08/15 10:07:03;;;;;;;19.08;7.13;;;;;;;;;;5099245;28;20209;-64
2021/08/15 10:09:31;;;;;;;13.30;7.10;;;;;;;;;;5100015;28;20704;-64
2021/08/15 10:11:59;;;;;;;11.57;6.82;;;;;;;;;;5102621;28;20836;-64
2021/08/15 10:14:27;;;;;;;10.57;6.32;;;;;;;;;;5110300;28;20229;-64
2021/08/15 10:16:57;;;;;;;16.23;8.10;;;;;;;;;;5099800;28;20205;-64
2021/08/15 10:19:31;;;;;;;13.25;8.30;;;;;;;;;;5099551;28;20305;-64
2021/08/15 10:22:00;;;;;;;15.18;7.68;;;;;;;;;;5099256;28;20229;-66
2021/08/15 10:24:45;;;;;;;14.63;6.35;;;;;;;;;;5100069;28;20211;-66
2021/08/15 10:27:31;;;;;;;12.27;7.57;;;;;;;;;;5099418;28;20205;-66
2021/08/15 10:29:59;;;;;;;10.70;6.65;;;;;;;;;;5099658;28;20232;-65
2021/08/15 10:32:27;;;;;;;8.80;6.68;;;;;;;;;;5099142;28;20909;-65
2021/08/15 10:35:16;;;;;;;10.43;6.15;;;;;;;;;;5099188;28;20212;-64
2021/08/15 10:37:47;;;;;;;9.07;5.72;;;;;;;;;;5098411;28;20209;-64
2021/08/15 10:40:33;;;;;;;13.15;5.90;;;;;;;;;;5099192;28;20707;-64
2021/08/15 10:43:01;;;;;;;8.90;6.15;;;;;;;;;;5098933;28;20221;-63
2021/08/15 10:45:29;;;;;;;12.95;5.68;;;;;;;;;;5098965;28;20205;-63
2021/08/15 10:48:15;;;;;;;11.88;6.53;;;;;;;;;;5098940;28;20263;-64
2021/08/15 10:50:44;;;;;;;9.98;5.70;;;;;;;;;;5098991;28;20615;-64
2021/08/15 10:53:27;;;;;;;10.40;6.70;;;;;;;;;;5098901;28;20312;-64
2021/08/15 10:55:57;;;;;;;10.43;6.38;;;;;;;;;;5098590;28;20201;-63
2021/08/15 10:58:35;;;;;;;8.77;5.75;;;;;;;;;;5098729;28;20247;-63
2021/08/15 11:01:04;;;;;;;7.97;5.30;;;;;;;;;;5098631;28;20211;-64
2021/08/15 11:03:36;;;;;;;11.60;6.22;;;;;;;;;;5098692;28;20297;-64
2021/08/15 11:06:05;;;;;;;10.60;6.05;;;;;;;;;;5098725;28;20287;-63
2021/08/15 11:08:53;;;;;;;11.73;5.97;;;;;;;;;;5098849;28;20223;-63
2021/08/15 11:11:30;;;;;;;10.02;6.38;;;;;;;;;;5098372;28;20247;-63
2021/08/15 11:14:17;;;;;;;13.05;5.97;;;;;;;;;;5098808;28;20216;-64
2021/08/15 11:16:45;;;;;;;9.90;5.53;;;;;;;;;;5098453;28;20205;-64
2021/08/15 11:19:26;;;;;;;12.25;6.85;;;;;;;;;;5098473;28;20225;-65
2021/08/15 11:22:09;;;;;;;9.68;6.18;;;;;;;;;;5098304;28;20220;-66
2021/08/15 11:24:39;;;;;;;9.20;6.20;;;;;;;;;;5098539;28;20215;-63
2021/08/15 11:27:09;;;;;;;13.82;5.70;;;;;;;;;;5098606;28;20205;-64
2021/08/15 11:29:37;;;;;;;9.43;6.68;;;;;;;;;;5097999;28;20212;-63
2021/08/15 11:32:05;;;;;;;9.63;5.78;;;;;;;;;;5098336;28;20261;-63
2021/08/15 11:34:36;;;;;;;13.55;6.22;;;;;;;;;;5098245;28;20261;-64
2021/08/15 11:37:05;;;;;;;12.40;6.35;;;;;;;;;;5098255;28;20213;-63
2021/08/15 11:39:34;;;;;;;14.40;6.75;;;;;;;;;;5097846;28;20237;-63
2021/08/15 11:42:02;;;;;;;13.55;6.32;;;;;;;;;;5097933;28;20229;-63
2021/08/15 11:44:45;;;;;;;11.23;6.10;;;;;;;;;;5098040;28;20205;-63
2021/08/15 11:47:18;;;;;;;11.23;6.00;;;;;;;;;;5097665;28;20219;-63
2021/08/15 11:49:46;;;;;;;6.70;5.40;;;;;;;;;;5097591;28;20201;-63
2021/08/15 11:52:15;;;;;;;8.73;5.68;;;;;;;;;;5097809;28;20225;-64
2021/08/15 11:54:43;;;;;;;11.10;5.72;;;;;;;;;;5098020;28;20217;-64
2021/08/15 11:57:14;;;;;;;11.75;5.70;;;;;;;;;;5097898;28;20211;-63
2021/08/15 11:59:43;;;;;;;7.13;5.80;;;;;;;;;;5097888;28;20231;-63
2021/08/15 12:02:15;;;;;;;11.18;5.90;;;;;;;;;;5097465;28;20229;-63
2021/08/15 12:04:46;;;;;;;8.68;6.05;;;;;;;;;;5097458;28;20208;-64
2021/08/15 12:07:19;;;;;;;8.40;6.47;;;;;;;;;;5097560;28;20227;-64
2021/08/15 12:09:47;;;;;;;9.50;5.70;;;;;;;;;;5097855;28;20269;-64
2021/08/15 12:12:15;;;;;;;8.93;5.57;;;;;;;;;;5102807;28;20256;-63
2021/08/15 12:14:43;;;;;;;11.68;5.65;;;;;;;;;;5118849;28;20234;-63
2021/08/15 12:17:11;;;;;;;10.63;5.85;;;;;;;;;;5118279;28;20208;-63
2021/08/15 12:19:41;;;;;;;13.48;6.60;;;;;;;;;;5098193;28;20218;-63
2021/08/15 12:22:19;;;;;;;9.43;5.18;;;;;;;;;;5097468;28;20235;-63
2021/08/15 12:24:47;;;;;;;9.40;5.72;;;;;;;;;;5097865;28;20288;-65
2021/08/15 12:27:15;;;;;;;8.60;5.68;;;;;;;;;;5097706;28;20211;-64
2021/08/15 12:29:44;;;;;;;9.05;6.20;;;;;;;;;;5097715;28;20197;-64
2021/08/15 12:32:12;;;;;;;8.80;6.32;;;;;;;;;;5097298;28;20256;-64
2021/08/15 12:34:41;;;;;;;10.00;6.18;;;;;;;;;;5097404;28;20209;-64
2021/08/15 12:37:11;;;;;;;9.68;5.85;;;;;;;;;;5097521;28;20297;-64
2021/08/15 12:39:43;;;;;;;6.30;5.70;;;;;;;;;;5096959;28;20321;-64
2021/08/15 12:42:15;;;;;;;10.35;5.53;;;;;;;;;;5097632;28;20225;-64
2021/08/15 12:44:47;;;;;;;8.88;5.68;;;;;;;;;;5097094;28;20303;-64
2021/08/15 12:47:15;;;;;;;8.73;5.80;;;;;;;;;;5097178;28;20201;-64
2021/08/15 12:49:45;;;;;;;12.30;7.07;;;;;;;;;;5096977;28;20209;-64
2021/08/15 12:52:21;;;;;;;12.50;6.22;;;;;;;;;;5110573;28;20228;-64
2021/08/15 12:55:14;;;;;;;9.35;6.00;;;;;;;;;;5117789;28;20223;-64
2021/08/15 12:57:43;;;;;;;11.55;5.70;;;;;;;;;;5117532;28;20205;-63
2021/08/15 13:00:11;;;;;;;7.80;5.45;;;;;;;;;;5119204;28;20256;-63
2021/08/15 13:02:41;;;;;;;7.47;6.20;;;;;;;;;;5121289;28;20586;-63
2021/08/15 13:05:09;;;;;;;12.23;6.07;;;;;;;;;;5121306;28;20205;-65
2021/08/15 13:07:37;;;;;;;9.88;6.88;;;;;;;;;;5087720;28;20211;-63
2021/08/15 13:10:08;;;;;;;11.50;6.85;;;;;;;;;;5101174;28;20652;-63
2021/08/15 13:12:36;;;;;;;12.07;6.60;;;;;;;;;;5109131;28;20228;-66
2021/08/15 13:15:05;;;;;;;17.00;7.22;;;;;;;;;;5121267;28;20204;-66
2021/08/15 13:17:33;;;;;;;10.32;6.38;;;;;;;;;;5121344;28;20213;-64
2021/08/15 13:20:02;;;;;;;9.77;6.05;;;;;;;;;;5097618;28;20221;-66
2021/08/15 13:22:30;;;;;;;9.88;5.88;;;;;;;;;;5100980;28;20235;-66
2021/08/15 13:24:58;;;;;;;12.02;5.82;;;;;;;;;;5100663;28;20284;-66
2021/08/15 13:27:27;;;;;;;10.82;5.95;;;;;;;;;;5100740;28;20209;-63
2021/08/15 13:29:55;;;;;;;13.48;6.95;;;;;;;;;;5100444;28;20736;-63
2021/08/15 13:32:24;;;;;;;16.42;6.40;;;;;;;;;;5100725;28;20229;-63
2021/08/15 13:34:55;;;;;;;11.73;5.82;;;;;;;;;;5100289;28;20216;-63
2021/08/15 13:37:24;;;;;;;10.90;6.88;;;;;;;;;;5100621;28;20264;-64
2021/08/15 13:39:53;;;;;;;8.50;5.85;;;;;;;;;;5100403;28;20229;-63
2021/08/15 13:42:21;;;;;;;11.40;6.03;;;;;;;;;;5100646;28;20224;-64
2021/08/15 13:44:52;;;;;;;10.57;6.53;;;;;;;;;;5100678;28;20235;-63
2021/08/15 13:47:20;;;;;;;9.35;6.00;;;;;;;;;;5100204;28;20213;-63
2021/08/15 13:49:49;;;;;;;9.35;6.53;;;;;;;;;;5100010;28;21004;-63
2021/08/15 13:52:17;;;;;;;11.57;5.88;;;;;;;;;;5100251;28;20221;-63
2021/08/15 13:54:45;;;;;;;11.98;5.82;;;;;;;;;;5100229;28;20216;-63
2021/08/15 13:57:13;;;;;;;10.68;7.18;;;;;;;;;;5100324;28;20211;-65
2021/08/15 13:59:41;;;;;;;9.73;6.22;;;;;;;;;;5100115;28;20679;-65
2021/08/15 14:02:10;;;;;;;12.45;5.75;;;;;;;;;;5099960;28;20231;-65
2021/08/15 14:04:40;;;;;;;13.55;6.78;;;;;;;;;;5099614;28;20215;-63
2021/08/15 14:07:08;;;;;;;12.82;6.57;;;;;;;;;;5099885;28;20731;-63
2021/08/15 14:09:37;;;;;;;9.27;6.22;;;;;;;;;;5099963;28;20236;-63
2021/08/15 14:12:05;;;;;;;13.23;6.05;;;;;;;;;;5099530;28;20213;-63
2021/08/15 14:14:35;;;;;;;15.93;6.18;;;;;;;;;;5100180;28;20297;-63
2021/08/15 14:17:05;;;;;;;9.30;6.72;;;;;;;;;;5099738;28;20201;-63
2021/08/15 14:19:36;;;;;;;13.85;7.88;;;;;;;;;;5099491;28;20205;-63
2021/08/15 14:22:04;;;;;;;13.07;6.50;;;;;;;;;;5099371;28;20613;-63
2021/08/15 14:24:32;;;;;;;11.85;6.20;;;;;;;;;;5099829;28;20205;-63
2021/08/15 14:27:00;;;;;;;9.50;6.85;;;;;;;;;;5099724;28;20221;-63
2021/08/15 14:29:28;;;;;;;13.65;7.80;;;;;;;;;;5099458;28;20576;-64
2021/08/15 14:31:56;;;;;;;11.85;6.68;;;;;;;;;;5099454;28;20229;-63
2021/08/15 14:34:24;;;;;;;8.13;6.60;;;;;;;;;;5099431;28;20209;-63
2021/08/15 14:36:53;;;;;;;10.63;5.63;;;;;;;;;;5099150;28;20215;-64
2021/08/15 14:39:21;;;;;;;11.10;6.70;;;;;;;;;;5099203;28;20243;-65
2021/08/15 14:41:49;;;;;;;8.73;5.88;;;;;;;;;;5099283;28;20236;-63